Etusivu
METAR-TAF:

METAR-TAF

Lentoasemat :

Madrid, Espanja

Adolfo Suárezin Barajasin Madridin kansainvälinen lentoasema

Leveyspiiri: 40-27N, Pituuspiiri: 003-33W, korkeus merenpinnasta: 609 m

Tämänhetkinen sää

Tämä raportti tehtiin 39 minuuttia sitten, kello 23.30 UTC
Tuuli 3 kn pohjoisesta
Lämpötila 4°C
Kosteus 75%
Ilmanpaine 1023 hPa
Näkyvyys 10 km tai enemmän
ei pilviä alle 1500 m:ssä eikä cumulonimbus-pilviä

METAR: LEMD 192330Z 35003KT CAVOK 04/M00 Q1023 NOSIG

Aika: 01:09 (00:09 UTC)

Sääennuste

Tämä raportti tehtiin 1 tunti ja 9 minuuttia sitten, kello 23.00 UTC
Ennuste voimassa 20. päivästä klo 00 UTC - 21. päivään klo 06 UTC
Tuuli 5 kn eri suunnista
Näkyvyys 10 km tai enemmän
ei pilviä alle 1500 m:ssä eikä cumulonimbus-pilviä

TAF: LEMD 192300Z 2000/2106 VRB05KT CAVOK TX19/2015Z TN00/2007Z

Säähavainnot ja -ennusteet yli 4000 lentoasemalta (METAR- ja TAF-raportit).

Käytössä olevat sääasemat on merkitty karttaan keltaisilla ja punaisilla pisteillä.

Aseta hiiri pisteen päälle nähdäksesi sääaseman nimen.

Klikkaa sitten nähdäksesi säähavainnot ja -ennusteet.

Kartan vaihtaminen: klikkaa mustalla rastilla varustettuja vihreitä pisteitä, niin voit zoomata sisään; viivalla varustettua vihreää pistettä, niin voit zoomata ulos tai vihreitä nuolia, niin pääset viereisille kartoille.


METAR-TAF: